createdAt,value
2022-07-26T00:00:45.245Z,2.13
2022-07-26T00:03:32.777Z,2.10
2022-07-26T00:06:21.011Z,2.20
2022-07-26T00:09:10.881Z,1.83
2022-07-26T00:12:00.760Z,2.00
2022-07-26T00:14:50.290Z,2.08
2022-07-26T00:17:39.528Z,2.22
2022-07-26T00:20:29.177Z,2.20
2022-07-26T00:23:20.527Z,2.17
2022-07-26T00:26:10.401Z,2.10
2022-07-26T00:29:00.354Z,2.00
2022-07-26T00:31:50.023Z,2.45
2022-07-26T00:34:39.602Z,3.15
2022-07-26T00:37:29.146Z,3.17
2022-07-26T00:40:20.122Z,2.50
2022-07-26T00:43:09.411Z,2.92
2022-07-26T00:45:58.913Z,2.28
2022-07-26T00:48:48.267Z,2.13
2022-07-26T00:51:37.805Z,2.13
2022-07-26T00:54:27.304Z,2.40
2022-07-26T00:57:18.739Z,2.80
2022-07-26T01:00:09.939Z,2.60
2022-07-26T01:03:01.399Z,2.65
2022-07-26T01:05:55.179Z,2.92
2022-07-26T01:08:44.637Z,2.38
2022-07-26T01:11:34.238Z,2.58
2022-07-26T01:14:25.262Z,2.65
2022-07-26T01:17:15.108Z,2.30
2022-07-26T01:20:04.487Z,2.60
2022-07-26T01:22:55.279Z,3.08
2022-07-26T01:25:45.986Z,2.63
2022-07-26T01:28:39.428Z,2.25
2022-07-26T01:31:29.186Z,3.45
2022-07-26T01:34:18.886Z,3.22
2022-07-26T01:37:09.383Z,3.30
2022-07-26T01:40:00.155Z,2.88
2022-07-26T01:42:49.762Z,2.85
2022-07-26T01:45:39.538Z,2.80
2022-07-26T01:48:29.250Z,2.60
2022-07-26T01:51:19.846Z,2.33
2022-07-26T01:54:09.788Z,2.70
2022-07-26T01:57:01.137Z,2.83
2022-07-26T01:59:50.877Z,2.58
2022-07-26T02:02:40.650Z,2.40
2022-07-26T02:05:30.408Z,2.38
2022-07-26T02:08:21.282Z,2.63
2022-07-26T02:11:13.237Z,2.45
2022-07-26T02:14:06.277Z,2.53
2022-07-26T02:17:00.649Z,2.30
2022-07-26T02:19:50.489Z,3.10
2022-07-26T02:22:39.668Z,2.50
2022-07-26T02:25:29.058Z,2.40
2022-07-26T02:28:18.622Z,2.47
2022-07-26T02:31:10.385Z,2.65
2022-07-26T02:34:01.428Z,2.67
2022-07-26T02:36:51.434Z,2.63
2022-07-26T02:39:40.719Z,2.78
2022-07-26T02:42:30.333Z,3.03
2022-07-26T02:45:19.668Z,2.78
2022-07-26T02:48:11.029Z,3.15
2022-07-26T02:51:00.377Z,2.47
2022-07-26T02:53:47.959Z,3.78
2022-07-26T02:56:35.213Z,3.05
2022-07-26T02:59:21.931Z,3.40
2022-07-26T03:02:09.114Z,3.20
2022-07-26T03:04:57.599Z,2.75
2022-07-26T03:07:44.572Z,3.42
2022-07-26T03:10:32.275Z,3.10
2022-07-26T03:13:19.549Z,3.08
2022-07-26T03:16:08.021Z,2.83
2022-07-26T03:18:55.135Z,2.70
2022-07-26T03:21:43.588Z,2.70
2022-07-26T03:24:30.552Z,3.08
2022-07-26T03:27:17.468Z,3.30
2022-07-26T03:30:04.967Z,2.67
2022-07-26T03:32:52.260Z,2.60
2022-07-26T03:35:39.484Z,2.70
2022-07-26T03:38:28.790Z,2.92
2022-07-26T03:41:15.771Z,3.15
2022-07-26T03:44:02.917Z,2.97
2022-07-26T03:46:49.834Z,4.53
2022-07-26T03:49:36.718Z,3.63
2022-07-26T03:52:23.654Z,3.45
2022-07-26T03:55:29.869Z,3.47
2022-07-26T03:58:17.011Z,3.67
2022-07-26T04:01:04.191Z,3.10
2022-07-26T04:03:51.606Z,3.70
2022-07-26T04:06:38.528Z,3.65
2022-07-26T04:09:25.628Z,3.88
2022-07-26T04:12:13.960Z,4.30
2022-07-26T04:15:01.097Z,4.07
2022-07-26T04:17:48.716Z,5.32
2022-07-26T04:20:36.092Z,4.47
2022-07-26T04:23:23.249Z,4.10
2022-07-26T04:26:10.585Z,4.07
2022-07-26T04:28:59.048Z,4.30
2022-07-26T04:31:45.922Z,4.20
2022-07-26T04:34:32.796Z,4.43
2022-07-26T04:37:19.640Z,6.13
2022-07-26T04:40:07.381Z,5.35
2022-07-26T04:42:54.673Z,5.30
2022-07-26T04:45:43.166Z,4.72
2022-07-26T04:48:30.321Z,5.35
2022-07-26T04:51:17.623Z,5.90
2022-07-26T04:54:05.114Z,5.32
2022-07-26T04:56:52.451Z,5.70
2022-07-26T04:59:39.637Z,5.93
2022-07-26T05:02:28.495Z,6.15
2022-07-26T05:05:16.239Z,6.88
2022-07-26T05:08:03.835Z,6.55
2022-07-26T05:10:55.590Z,6.20
2022-07-26T05:13:43.007Z,7.45
2022-07-26T05:16:29.959Z,8.25
2022-07-26T05:19:19.762Z,7.38
2022-07-26T05:22:06.907Z,6.88
2022-07-26T05:24:54.011Z,8.07
2022-07-26T05:27:41.897Z,7.95
2022-07-26T05:30:29.012Z,7.65
2022-07-26T05:33:16.668Z,8.55
2022-07-26T05:36:05.361Z,8.60
2022-07-26T05:38:52.282Z,10.57
2022-07-26T05:41:39.191Z,8.60
2022-07-26T05:44:26.548Z,8.32
2022-07-26T05:47:13.832Z,9.68
2022-07-26T05:50:01.031Z,9.23
2022-07-26T05:52:49.673Z,9.50
2022-07-26T05:55:37.280Z,8.63
2022-07-26T05:58:24.283Z,9.25
2022-07-26T06:01:11.075Z,9.13
2022-07-26T06:03:58.068Z,9.88
2022-07-26T06:06:45.332Z,10.73
2022-07-26T06:09:33.779Z,10.73
2022-07-26T06:12:20.923Z,10.90
2022-07-26T06:15:15.673Z,11.40
2022-07-26T06:18:03.143Z,10.57
2022-07-26T06:20:50.437Z,11.32
2022-07-26T06:23:37.317Z,10.68
2022-07-26T06:26:26.145Z,10.20
2022-07-26T06:29:13.066Z,10.07
2022-07-26T06:32:00.891Z,11.70
2022-07-26T06:34:47.958Z,11.13
2022-07-26T06:37:37.715Z,12.27
2022-07-26T06:40:25.243Z,11.50
2022-07-26T06:43:13.772Z,11.88
2022-07-26T06:46:01.057Z,12.52
2022-07-26T06:48:52.648Z,14.52
2022-07-26T06:51:39.990Z,12.50
2022-07-26T06:54:27.007Z,13.45
2022-07-26T06:57:14.177Z,12.23
2022-07-26T07:00:02.748Z,14.65
2022-07-26T07:02:50.007Z,14.63
2022-07-26T07:05:37.380Z,13.95
2022-07-26T07:08:24.908Z,14.88
2022-07-26T07:11:11.894Z,14.90
2022-07-26T07:13:59.331Z,16.05
2022-07-26T07:16:47.897Z,14.95
2022-07-26T07:19:35.960Z,16.40
2022-07-26T07:22:23.027Z,16.10
2022-07-26T07:25:10.033Z,17.48
2022-07-26T07:27:57.387Z,17.40
2022-07-26T07:30:44.656Z,17.25
2022-07-26T07:33:43.590Z,18.75
2022-07-26T07:36:40.125Z,20.27
2022-07-26T07:39:34.940Z,20.65
2022-07-26T07:42:25.644Z,20.48
2022-07-26T07:45:12.638Z,20.63
2022-07-26T07:47:59.557Z,21.38
2022-07-26T07:50:47.805Z,19.50
2022-07-26T07:53:35.047Z,21.48
2022-07-26T07:56:22.178Z,20.80
2022-07-26T07:59:11.111Z,20.42
2022-07-26T08:01:58.912Z,20.88
2022-07-26T08:04:45.825Z,19.67
2022-07-26T08:07:36.395Z,21.27
2022-07-26T08:10:23.609Z,18.65
2022-07-26T08:13:10.438Z,20.30
2022-07-26T08:15:58.135Z,17.88
2022-07-26T08:18:57.060Z,20.50
2022-07-26T08:21:46.833Z,19.95
2022-07-26T08:24:35.390Z,21.77
2022-07-26T08:27:22.710Z,20.40
2022-07-26T08:30:10.017Z,20.77
2022-07-26T08:32:56.825Z,20.40
2022-07-26T08:35:43.722Z,19.63
2022-07-26T08:38:30.625Z,19.88
2022-07-26T08:41:19.540Z,20.85
2022-07-26T08:44:07.483Z,19.38
2022-07-26T08:46:54.902Z,18.55
2022-07-26T08:49:42.553Z,18.08
2022-07-26T08:52:29.985Z,18.25
2022-07-26T08:55:18.247Z,18.15
2022-07-26T08:58:06.598Z,18.17
2022-07-26T09:01:04.139Z,17.02
2022-07-26T09:03:51.346Z,17.00
2022-07-26T09:06:38.390Z,15.27
2022-07-26T09:09:25.526Z,14.77
2022-07-26T09:12:15.159Z,13.95
2022-07-26T09:15:05.018Z,13.85
2022-07-26T09:17:53.375Z,14.10
2022-07-26T09:20:47.302Z,12.98
2022-07-26T09:23:41.218Z,13.20
2022-07-26T09:26:28.250Z,13.57
2022-07-26T09:29:15.082Z,12.07
2022-07-26T09:32:16.960Z,11.30
2022-07-26T09:35:44.233Z,11.50
2022-07-26T09:38:19.022Z,9.30
2022-07-26T09:41:18.617Z,9.63
2022-07-26T09:44:07.051Z,8.82
2022-07-26T09:46:55.075Z,8.57
2022-07-26T09:49:43.826Z,8.27
2022-07-26T09:52:31.129Z,8.02
2022-07-26T09:55:18.118Z,7.80
2022-07-26T09:58:06.491Z,7.25
2022-07-26T10:00:57.685Z,7.93
2022-07-26T10:03:49.281Z,7.15
2022-07-26T10:06:37.549Z,7.50
2022-07-26T10:09:25.463Z,7.43
2022-07-26T10:12:14.957Z,7.20
2022-07-26T10:15:02.382Z,6.93
2022-07-26T10:17:49.675Z,6.70
2022-07-26T10:20:41.526Z,6.80
2022-07-26T10:23:37.227Z,6.43
2022-07-26T10:26:38.531Z,6.40
2022-07-26T10:29:27.210Z,6.82
2022-07-26T10:32:15.368Z,7.30
2022-07-26T10:35:02.685Z,7.40
2022-07-26T10:37:58.647Z,7.60
2022-07-26T10:40:58.470Z,7.72
2022-07-26T10:44:05.350Z,8.00
2022-07-26T10:46:56.159Z,7.60
2022-07-26T10:49:44.042Z,7.20
2022-07-26T10:52:31.733Z,6.53
2022-07-26T10:55:19.164Z,6.90
2022-07-26T10:58:07.992Z,7.10
2022-07-26T11:00:55.942Z,6.00
2022-07-26T11:03:44.179Z,6.70
2022-07-26T11:06:31.829Z,6.95
2022-07-26T11:09:20.820Z,6.57
2022-07-26T11:12:20.936Z,6.72
2022-07-26T11:15:16.919Z,6.35
2022-07-26T11:18:11.886Z,5.50
2022-07-26T11:20:59.827Z,5.05
2022-07-26T11:23:47.577Z,5.28
2022-07-26T11:26:41.209Z,4.65
2022-07-26T11:29:35.152Z,5.25
2022-07-26T11:32:29.564Z,4.95
2022-07-26T11:35:16.531Z,4.45
2022-07-26T11:38:11.734Z,5.10
2022-07-26T11:40:59.723Z,5.30
2022-07-26T11:43:46.630Z,5.50
2022-07-26T11:46:35.422Z,5.10
2022-07-26T11:49:41.509Z,5.35
2022-07-26T11:52:32.327Z,6.78
2022-07-26T11:55:26.182Z,7.55
2022-07-26T11:58:13.309Z,7.40
2022-07-26T12:01:00.688Z,7.03
2022-07-26T12:03:49.486Z,7.15
2022-07-26T12:06:39.786Z,6.38
2022-07-26T12:09:31.782Z,6.95
2022-07-26T12:12:22.932Z,6.20
2022-07-26T12:15:10.499Z,6.50
2022-07-26T12:18:01.355Z,6.40
2022-07-26T12:21:00.655Z,5.57
2022-07-26T12:23:53.136Z,5.38
2022-07-26T12:26:41.009Z,4.57
2022-07-26T12:29:35.575Z,3.58
2022-07-26T12:32:24.170Z,3.88
2022-07-26T12:35:11.914Z,3.90
2022-07-26T12:37:59.165Z,3.90
2022-07-26T12:40:47.903Z,4.07
2022-07-26T12:43:39.816Z,3.88
2022-07-26T12:46:27.456Z,4.10
2022-07-26T12:49:15.373Z,4.10
2022-07-26T12:52:02.366Z,4.38
2022-07-26T12:54:50.351Z,3.78
2022-07-26T12:57:38.937Z,4.22
2022-07-26T13:00:33.058Z,3.97
2022-07-26T13:03:19.985Z,4.22
2022-07-26T13:06:07.296Z,4.20
2022-07-26T13:08:54.355Z,4.05
2022-07-26T13:11:41.460Z,4.40
2022-07-26T13:14:29.754Z,4.30
2022-07-26T13:17:17.001Z,4.18
2022-07-26T13:20:04.657Z,3.92
2022-07-26T13:22:51.866Z,3.80
2022-07-26T13:25:40.423Z,4.00
2022-07-26T13:28:27.956Z,4.35
2022-07-26T13:31:16.583Z,4.43
2022-07-26T13:34:04.366Z,3.92
2022-07-26T13:36:51.778Z,4.10
2022-07-26T13:39:39.790Z,3.88
2022-07-26T13:42:27.266Z,3.10
2022-07-26T13:45:14.388Z,3.00
2022-07-26T13:48:02.596Z,2.70
2022-07-26T13:50:49.967Z,2.97
2022-07-26T13:53:37.207Z,3.25
2022-07-26T13:56:39.298Z,3.25
2022-07-26T13:59:27.273Z,2.92
2022-07-26T14:02:14.444Z,3.40
2022-07-26T14:05:03.087Z,3.33
2022-07-26T14:07:50.146Z,2.95
2022-07-26T14:10:40.469Z,3.40
2022-07-26T14:13:27.825Z,3.08
2022-07-26T14:16:14.983Z,3.33
2022-07-26T14:19:02.195Z,2.90
2022-07-26T14:22:00.096Z,2.95
2022-07-26T14:24:47.780Z,2.63
2022-07-26T14:27:34.835Z,2.75
2022-07-26T14:30:21.947Z,3.17
2022-07-26T14:33:09.558Z,2.70
2022-07-26T14:35:56.770Z,3.50
2022-07-26T14:38:45.242Z,3.05
2022-07-26T14:41:32.731Z,3.67
2022-07-26T14:44:19.626Z,3.80
2022-07-26T14:47:08.639Z,3.70
2022-07-26T14:49:56.226Z,4.07
2022-07-26T14:52:45.485Z,4.30
2022-07-26T14:55:33.919Z,3.80
2022-07-26T14:58:21.127Z,3.30
2022-07-26T15:01:07.996Z,3.50
2022-07-26T15:03:55.371Z,3.20
2022-07-26T15:06:42.428Z,3.33
2022-07-26T15:09:29.381Z,3.65
2022-07-26T15:12:17.788Z,3.13
2022-07-26T15:15:05.469Z,2.85
2022-07-26T15:17:52.661Z,3.40
2022-07-26T15:20:40.508Z,3.30
2022-07-26T15:23:27.536Z,3.50
2022-07-26T15:26:14.581Z,2.90
2022-07-26T15:29:02.869Z,3.20
2022-07-26T15:31:50.527Z,2.83
2022-07-26T15:34:37.550Z,2.28
2022-07-26T15:37:24.803Z,3.30
2022-07-26T15:40:12.713Z,3.15
2022-07-26T15:42:59.648Z,3.40
2022-07-26T15:45:49.112Z,4.07
2022-07-26T15:48:36.192Z,3.72
2022-07-26T15:51:23.412Z,3.65
2022-07-26T15:54:11.893Z,3.45
2022-07-26T15:56:59.226Z,3.20
2022-07-26T15:59:46.413Z,2.95
2022-07-26T16:02:34.826Z,3.45
2022-07-26T16:05:21.828Z,3.00
2022-07-26T16:08:08.512Z,2.78
2022-07-26T16:10:55.539Z,2.25
2022-07-26T16:13:42.456Z,2.20
2022-07-26T16:16:29.676Z,2.90
2022-07-26T16:19:18.312Z,4.88
2022-07-26T16:22:05.324Z,3.03
2022-07-26T16:24:52.182Z,2.22
2022-07-26T16:27:39.026Z,1.90
2022-07-26T16:30:26.107Z,2.13
2022-07-26T16:33:13.675Z,1.70
2022-07-26T16:36:06.098Z,2.00
2022-07-26T16:38:53.566Z,1.88
2022-07-26T16:41:40.550Z,2.22
2022-07-26T16:44:27.776Z,2.33
2022-07-26T16:47:14.622Z,2.20
2022-07-26T16:50:01.871Z,2.80
2022-07-26T16:52:50.348Z,2.33
2022-07-26T16:55:37.816Z,2.28
2022-07-26T16:58:24.876Z,2.53
2022-07-26T17:01:11.855Z,1.98
2022-07-26T17:03:59.408Z,1.80
2022-07-26T17:07:02.005Z,1.67
2022-07-26T17:09:54.682Z,1.80
2022-07-26T17:12:42.053Z,1.30
2022-07-26T17:15:29.689Z,1.40
2022-07-26T17:18:16.775Z,1.17
2022-07-26T17:21:03.944Z,1.17
2022-07-26T17:23:51.345Z,1.13
2022-07-26T17:26:40.241Z,1.10
2022-07-26T17:29:27.271Z,1.42
2022-07-26T17:32:14.266Z,1.40
2022-07-26T17:35:01.287Z,1.20
2022-07-26T17:37:48.237Z,1.15
2022-07-26T17:40:35.762Z,1.65
2022-07-26T17:43:36.608Z,1.45
2022-07-26T17:46:24.016Z,1.55
2022-07-26T17:49:11.787Z,1.40
2022-07-26T17:51:59.234Z,1.65
2022-07-26T17:54:46.427Z,1.63
2022-07-26T17:57:33.279Z,1.80
2022-07-26T18:00:22.412Z,1.90
2022-07-26T18:03:09.762Z,2.03
2022-07-26T18:05:57.086Z,2.30
2022-07-26T18:08:43.932Z,2.60
2022-07-26T18:11:31.022Z,2.60
2022-07-26T18:14:18.201Z,3.45
2022-07-26T18:17:06.665Z,3.05
2022-07-26T18:19:53.838Z,3.35
2022-07-26T18:22:41.274Z,2.95
2022-07-26T18:25:28.142Z,2.88
2022-07-26T18:28:16.251Z,3.30
2022-07-26T18:31:03.798Z,2.83
2022-07-26T18:33:52.290Z,2.70
2022-07-26T18:36:39.389Z,2.88
2022-07-26T18:39:32.671Z,2.63
2022-07-26T18:42:20.144Z,2.40
2022-07-26T18:45:07.586Z,2.33
2022-07-26T18:47:54.706Z,1.88
2022-07-26T18:50:43.942Z,1.75
2022-07-26T18:53:32.271Z,2.35
2022-07-26T18:56:19.985Z,2.00
2022-07-26T18:59:06.982Z,2.08
2022-07-26T19:01:54.015Z,1.80
2022-07-26T19:04:41.142Z,2.30
2022-07-26T19:07:29.993Z,2.70
2022-07-26T19:10:17.290Z,2.20
2022-07-26T19:13:04.416Z,2.58
2022-07-26T19:15:52.083Z,2.10
2022-07-26T19:18:39.410Z,2.13
2022-07-26T19:21:26.354Z,2.40
2022-07-26T19:24:14.804Z,1.92
2022-07-26T19:27:02.661Z,2.40
2022-07-26T19:29:49.905Z,2.22
2022-07-26T19:32:37.124Z,2.25
2022-07-26T19:35:24.606Z,2.35
2022-07-26T19:38:11.910Z,2.22
2022-07-26T19:41:00.326Z,2.47
2022-07-26T19:43:47.437Z,2.67
2022-07-26T19:46:34.359Z,2.30
2022-07-26T19:49:21.388Z,2.00
2022-07-26T19:52:11.625Z,2.83
2022-07-26T19:54:59.090Z,2.45
2022-07-26T19:57:47.446Z,2.13
2022-07-26T20:00:34.858Z,2.70
2022-07-26T20:03:22.127Z,3.40
2022-07-26T20:06:09.554Z,2.72
2022-07-26T20:08:56.906Z,3.00
2022-07-26T20:11:50.546Z,3.03
2022-07-26T20:14:39.216Z,3.03
2022-07-26T20:17:26.571Z,3.58
2022-07-26T20:20:13.754Z,3.45
2022-07-26T20:23:02.273Z,3.15
2022-07-26T20:25:49.741Z,3.58
2022-07-26T20:28:36.954Z,3.33
2022-07-26T20:31:25.285Z,3.40
2022-07-26T20:34:12.557Z,3.28
2022-07-26T20:36:59.575Z,3.03
2022-07-26T20:39:46.941Z,2.80
2022-07-26T20:42:35.191Z,2.90
2022-07-26T20:45:24.301Z,3.70
2022-07-26T20:48:12.810Z,3.17
2022-07-26T20:51:00.070Z,3.20
2022-07-26T20:53:47.052Z,2.88
2022-07-26T20:56:34.031Z,2.65
2022-07-26T20:59:20.965Z,2.80
2022-07-26T21:02:07.862Z,2.90
2022-07-26T21:04:56.197Z,2.50
2022-07-26T21:07:58.315Z,2.80
2022-07-26T21:10:47.688Z,2.45
2022-07-26T21:13:35.180Z,3.45
2022-07-26T21:16:22.797Z,3.38
2022-07-26T21:19:10.030Z,2.72
2022-07-26T21:22:00.315Z,4.05
2022-07-26T21:24:47.151Z,2.70
2022-07-26T21:27:34.439Z,2.45
2022-07-26T21:30:21.541Z,2.17
2022-07-26T21:33:08.781Z,2.53
2022-07-26T21:35:55.967Z,2.50
2022-07-26T21:38:44.319Z,2.30
2022-07-26T21:41:31.619Z,2.25
2022-07-26T21:44:18.417Z,2.17
2022-07-26T21:47:05.860Z,2.35
2022-07-26T21:49:53.293Z,2.42
2022-07-26T21:52:40.196Z,2.00
2022-07-26T21:55:28.792Z,2.40
2022-07-26T21:58:16.024Z,2.75
2022-07-26T22:01:06.554Z,2.20
2022-07-26T22:03:54.563Z,1.80
2022-07-26T22:06:41.391Z,2.22
2022-07-26T22:09:28.366Z,2.33
2022-07-26T22:12:16.611Z,2.00
2022-07-26T22:15:03.634Z,2.15
2022-07-26T22:17:50.602Z,2.00
2022-07-26T22:20:37.850Z,2.35
2022-07-26T22:23:30.048Z,1.98
2022-07-26T22:26:17.387Z,2.05
2022-07-26T22:29:05.676Z,2.13
2022-07-26T22:31:52.894Z,2.15
2022-07-26T22:34:39.733Z,2.00
2022-07-26T22:37:26.578Z,1.85
2022-07-26T22:40:13.775Z,2.00
2022-07-26T22:43:00.771Z,2.20
2022-07-26T22:45:49.429Z,2.33
2022-07-26T22:48:38.675Z,2.20
2022-07-26T22:51:26.251Z,2.45
2022-07-26T22:54:13.202Z,1.80
2022-07-26T22:57:00.093Z,1.80
2022-07-26T22:59:47.169Z,2.03
2022-07-26T23:02:36.169Z,2.15
2022-07-26T23:05:26.096Z,2.20
2022-07-26T23:08:46.560Z,1.90
2022-07-26T23:11:31.763Z,2.08
2022-07-26T23:14:19.099Z,2.45
2022-07-26T23:17:06.326Z,2.00
2022-07-26T23:19:54.578Z,1.90
2022-07-26T23:22:43.375Z,2.40
2022-07-26T23:25:30.358Z,1.98
2022-07-26T23:28:35.850Z,2.05
2022-07-26T23:31:24.347Z,2.20
2022-07-26T23:34:11.226Z,2.33
2022-07-26T23:36:59.554Z,2.10
2022-07-26T23:39:46.789Z,2.05
2022-07-26T23:42:33.586Z,2.10
2022-07-26T23:45:20.565Z,2.05
2022-07-26T23:48:08.083Z,2.08
2022-07-26T23:50:55.183Z,1.70
2022-07-26T23:53:43.822Z,2.20
2022-07-26T23:56:31.163Z,1.70
2022-07-26T23:59:18.173Z,2.08
